Terminal Aerodrome Forecast
Issued by NWS

Home | Current Version | Previous Version | Text Only | Print | Product List | Glossary On
Versions: 1 2 3 4 5 6 7 8 9 10 11 12 13 14
161
FTAK31 PAJN 301744
TAFAJN
TAF
PAJN 301744Z 3018/3118 10014KT P6SM VCSH SCT025 BKN040 OVC060
      WS020/15025KT
      TEMPO 3018/3022 6SM -SHRA BR BKN025 OVC040
     FM310300 11012G20KT P6SM -RA BKN025 OVC040 WS020/15035KT
     FM310600 11012G20KT 3SM -RA BR BKN020 OVC030 WS020/14045KT=

USA.gov is the U.S. government's official web portal to all federal, state and local government web resources and services.